sensor_id;sensor_type;location;lat;lon;timestamp;P1;durP1;ratioP1;P2;durP2;ratioP2
44722;SDS011;30451;48.638;10.624;2022-11-25T00:00:53;3.20;;;1.80;;
44722;SDS011;30451;48.638;10.624;2022-11-25T00:03:27;3.13;;;1.83;;
44722;SDS011;30451;48.638;10.624;2022-11-25T00:05:52;2.67;;;1.73;;
44722;SDS011;30451;48.638;10.624;2022-11-25T00:08:18;3.25;;;1.90;;
44722;SDS011;30451;48.638;10.624;2022-11-25T00:10:44;3.25;;;1.80;;
44722;SDS011;30451;48.638;10.624;2022-11-25T00:13:09;3.08;;;1.95;;
44722;SDS011;30451;48.638;10.624;2022-11-25T00:15:35;2.92;;;1.92;;
44722;SDS011;30451;48.638;10.624;2022-11-25T00:18:00;4.10;;;1.90;;
44722;SDS011;30451;48.638;10.624;2022-11-25T00:20:26;2.75;;;1.85;;
44722;SDS011;30451;48.638;10.624;2022-11-25T00:22:51;2.80;;;1.80;;
44722;SDS011;30451;48.638;10.624;2022-11-25T00:25:17;2.75;;;1.60;;
44722;SDS011;30451;48.638;10.624;2022-11-25T00:27:43;2.63;;;1.73;;
44722;SDS011;30451;48.638;10.624;2022-11-25T00:30:08;2.97;;;1.80;;
44722;SDS011;30451;48.638;10.624;2022-11-25T00:32:34;2.63;;;1.67;;
44722;SDS011;30451;48.638;10.624;2022-11-25T00:35:00;2.53;;;1.55;;
44722;SDS011;30451;48.638;10.624;2022-11-25T00:37:25;2.40;;;1.58;;
44722;SDS011;30451;48.638;10.624;2022-11-25T00:39:51;3.28;;;1.70;;
44722;SDS011;30451;48.638;10.624;2022-11-25T00:42:17;2.80;;;1.85;;
44722;SDS011;30451;48.638;10.624;2022-11-25T00:45:01;2.70;;;1.80;;
44722;SDS011;30451;48.638;10.624;2022-11-25T00:47:26;2.65;;;1.70;;
44722;SDS011;30451;48.638;10.624;2022-11-25T00:49:53;3.08;;;1.83;;
44722;SDS011;30451;48.638;10.624;2022-11-25T00:52:20;2.88;;;1.90;;
44722;SDS011;30451;48.638;10.624;2022-11-25T00:54:47;2.40;;;1.67;;
44722;SDS011;30451;48.638;10.624;2022-11-25T00:57:14;2.63;;;1.70;;
44722;SDS011;30451;48.638;10.624;2022-11-25T00:59:41;2.97;;;1.90;;
44722;SDS011;30451;48.638;10.624;2022-11-25T01:02:07;2.45;;;1.67;;
44722;SDS011;30451;48.638;10.624;2022-11-25T01:04:34;3.28;;;1.90;;
44722;SDS011;30451;48.638;10.624;2022-11-25T01:06:59;2.95;;;1.70;;
44722;SDS011;30451;48.638;10.624;2022-11-25T01:09:26;2.67;;;1.85;;
44722;SDS011;30451;48.638;10.624;2022-11-25T01:11:52;3.13;;;1.95;;
44722;SDS011;30451;48.638;10.624;2022-11-25T01:14:18;2.80;;;1.90;;
44722;SDS011;30451;48.638;10.624;2022-11-25T01:16:45;2.60;;;1.70;;
44722;SDS011;30451;48.638;10.624;2022-11-25T01:19:12;2.35;;;1.55;;
44722;SDS011;30451;48.638;10.624;2022-11-25T01:21:38;2.70;;;1.80;;
44722;SDS011;30451;48.638;10.624;2022-11-25T01:24:04;2.55;;;1.60;;
44722;SDS011;30451;48.638;10.624;2022-11-25T01:26:31;2.63;;;1.60;;
44722;SDS011;30451;48.638;10.624;2022-11-25T01:28:58;2.70;;;1.67;;
44722;SDS011;30451;48.638;10.624;2022-11-25T01:31:25;2.60;;;1.60;;
44722;SDS011;30451;48.638;10.624;2022-11-25T01:33:54;2.67;;;1.50;;
44722;SDS011;30451;48.638;10.624;2022-11-25T01:36:22;2.50;;;1.57;;
44722;SDS011;30451;48.638;10.624;2022-11-25T01:38:49;2.30;;;1.60;;
44722;SDS011;30451;48.638;10.624;2022-11-25T01:41:17;2.70;;;1.80;;
44722;SDS011;30451;48.638;10.624;2022-11-25T01:43:42;2.50;;;1.60;;
44722;SDS011;30451;48.638;10.624;2022-11-25T01:46:24;2.40;;;1.70;;
44722;SDS011;30451;48.638;10.624;2022-11-25T01:48:57;2.42;;;1.60;;
44722;SDS011;30451;48.638;10.624;2022-11-25T01:51:31;2.40;;;1.60;;
44722;SDS011;30451;48.638;10.624;2022-11-25T01:54:02;2.70;;;1.75;;
44722;SDS011;30451;48.638;10.624;2022-11-25T01:56:32;2.28;;;1.67;;
44722;SDS011;30451;48.638;10.624;2022-11-25T01:59:03;2.38;;;1.58;;
44722;SDS011;30451;48.638;10.624;2022-11-25T02:01:29;2.55;;;1.60;;
44722;SDS011;30451;48.638;10.624;2022-11-25T02:03:55;2.75;;;1.70;;
44722;SDS011;30451;48.638;10.624;2022-11-25T02:06:23;2.40;;;1.50;;
44722;SDS011;30451;48.638;10.624;2022-11-25T02:08:56;2.33;;;1.50;;
44722;SDS011;30451;48.638;10.624;2022-11-25T02:11:26;2.00;;;1.42;;
44722;SDS011;30451;48.638;10.624;2022-11-25T02:13:54;2.65;;;1.88;;
44722;SDS011;30451;48.638;10.624;2022-11-25T02:16:22;2.58;;;1.60;;
44722;SDS011;30451;48.638;10.624;2022-11-25T02:18:48;2.80;;;1.60;;
44722;SDS011;30451;48.638;10.624;2022-11-25T02:21:15;2.45;;;1.50;;
44722;SDS011;30451;48.638;10.624;2022-11-25T02:24:02;2.28;;;1.42;;
44722;SDS011;30451;48.638;10.624;2022-11-25T02:26:39;2.22;;;1.48;;
44722;SDS011;30451;48.638;10.624;2022-11-25T02:29:05;3.00;;;1.85;;
44722;SDS011;30451;48.638;10.624;2022-11-25T02:31:31;2.50;;;1.85;;
44722;SDS011;30451;48.638;10.624;2022-11-25T02:33:56;2.20;;;1.58;;
44722;SDS011;30451;48.638;10.624;2022-11-25T02:36:22;2.30;;;1.60;;
44722;SDS011;30451;48.638;10.624;2022-11-25T02:38:55;2.20;;;1.58;;
44722;SDS011;30451;48.638;10.624;2022-11-25T02:41:32;3.13;;;1.60;;
44722;SDS011;30451;48.638;10.624;2022-11-25T02:44:01;1.95;;;1.27;;
44722;SDS011;30451;48.638;10.624;2022-11-25T02:46:28;2.85;;;1.60;;
44722;SDS011;30451;48.638;10.624;2022-11-25T02:48:54;2.45;;;1.67;;
44722;SDS011;30451;48.638;10.624;2022-11-25T02:51:22;2.35;;;1.40;;
44722;SDS011;30451;48.638;10.624;2022-11-25T02:53:50;2.60;;;1.45;;
44722;SDS011;30451;48.638;10.624;2022-11-25T02:56:16;2.45;;;1.50;;
44722;SDS011;30451;48.638;10.624;2022-11-25T02:58:43;2.10;;;1.30;;
44722;SDS011;30451;48.638;10.624;2022-11-25T03:01:09;2.20;;;1.40;;
44722;SDS011;30451;48.638;10.624;2022-11-25T03:03:35;2.20;;;1.40;;
44722;SDS011;30451;48.638;10.624;2022-11-25T03:06:01;2.33;;;1.40;;
44722;SDS011;30451;48.638;10.624;2022-11-25T03:08:27;2.30;;;1.50;;
44722;SDS011;30451;48.638;10.624;2022-11-25T03:10:53;2.28;;;1.50;;
44722;SDS011;30451;48.638;10.624;2022-11-25T03:13:18;2.85;;;1.85;;
44722;SDS011;30451;48.638;10.624;2022-11-25T03:15:44;2.30;;;1.48;;
44722;SDS011;30451;48.638;10.624;2022-11-25T03:18:10;2.05;;;1.48;;
44722;SDS011;30451;48.638;10.624;2022-11-25T03:20:36;2.33;;;1.45;;
44722;SDS011;30451;48.638;10.624;2022-11-25T03:23:02;2.35;;;1.42;;
44722;SDS011;30451;48.638;10.624;2022-11-25T03:25:29;2.50;;;1.50;;
44722;SDS011;30451;48.638;10.624;2022-11-25T03:27:55;2.13;;;1.40;;
44722;SDS011;30451;48.638;10.624;2022-11-25T03:30:23;2.40;;;1.50;;
44722;SDS011;30451;48.638;10.624;2022-11-25T03:32:51;2.55;;;1.55;;
44722;SDS011;30451;48.638;10.624;2022-11-25T03:35:16;2.67;;;1.67;;
44722;SDS011;30451;48.638;10.624;2022-11-25T03:37:42;2.40;;;1.33;;
44722;SDS011;30451;48.638;10.624;2022-11-25T03:40:09;2.65;;;1.42;;
44722;SDS011;30451;48.638;10.624;2022-11-25T03:42:36;2.20;;;1.45;;
44722;SDS011;30451;48.638;10.624;2022-11-25T03:45:03;1.90;;;1.30;;
44722;SDS011;30451;48.638;10.624;2022-11-25T03:47:29;2.55;;;1.67;;
44722;SDS011;30451;48.638;10.624;2022-11-25T03:49:55;2.10;;;1.40;;
44722;SDS011;30451;48.638;10.624;2022-11-25T03:52:21;2.20;;;1.40;;
44722;SDS011;30451;48.638;10.624;2022-11-25T03:54:47;1.90;;;1.30;;
44722;SDS011;30451;48.638;10.624;2022-11-25T03:57:12;2.20;;;1.42;;
44722;SDS011;30451;48.638;10.624;2022-11-25T03:59:38;2.08;;;1.45;;
44722;SDS011;30451;48.638;10.624;2022-11-25T04:02:03;1.80;;;1.40;;
44722;SDS011;30451;48.638;10.624;2022-11-25T04:04:29;2.28;;;1.50;;
44722;SDS011;30451;48.638;10.624;2022-11-25T04:06:55;2.20;;;1.40;;
44722;SDS011;30451;48.638;10.624;2022-11-25T04:09:21;2.10;;;1.45;;
44722;SDS011;30451;48.638;10.624;2022-11-25T04:11:46;1.98;;;1.30;;
44722;SDS011;30451;48.638;10.624;2022-11-25T04:14:31;1.95;;;1.50;;
44722;SDS011;30451;48.638;10.624;2022-11-25T04:16:56;2.45;;;1.50;;
44722;SDS011;30451;48.638;10.624;2022-11-25T04:19:22;2.22;;;1.60;;
44722;SDS011;30451;48.638;10.624;2022-11-25T04:21:48;2.15;;;1.48;;
44722;SDS011;30451;48.638;10.624;2022-11-25T04:24:13;1.70;;;1.30;;
44722;SDS011;30451;48.638;10.624;2022-11-25T04:26:39;2.00;;;1.30;;
44722;SDS011;30451;48.638;10.624;2022-11-25T04:29:05;2.38;;;1.38;;
44722;SDS011;30451;48.638;10.624;2022-11-25T04:31:31;1.92;;;1.30;;
44722;SDS011;30451;48.638;10.624;2022-11-25T04:33:56;2.40;;;1.30;;
44722;SDS011;30451;48.638;10.624;2022-11-25T04:36:22;2.08;;;1.40;;
44722;SDS011;30451;48.638;10.624;2022-11-25T04:38:48;1.65;;;1.20;;
44722;SDS011;30451;48.638;10.624;2022-11-25T04:41:13;1.55;;;1.20;;
44722;SDS011;30451;48.638;10.624;2022-11-25T04:43:39;1.92;;;1.30;;
44722;SDS011;30451;48.638;10.624;2022-11-25T04:46:05;2.17;;;1.40;;
44722;SDS011;30451;48.638;10.624;2022-11-25T04:48:31;1.90;;;1.25;;
44722;SDS011;30451;48.638;10.624;2022-11-25T04:50:56;1.75;;;1.20;;
44722;SDS011;30451;48.638;10.624;2022-11-25T04:53:22;2.20;;;1.30;;
44722;SDS011;30451;48.638;10.624;2022-11-25T04:55:47;2.15;;;1.50;;
44722;SDS011;30451;48.638;10.624;2022-11-25T04:58:13;2.10;;;1.30;;
44722;SDS011;30451;48.638;10.624;2022-11-25T05:01:00;1.95;;;1.23;;
44722;SDS011;30451;48.638;10.624;2022-11-25T05:03:25;2.03;;;1.40;;
44722;SDS011;30451;48.638;10.624;2022-11-25T05:05:51;2.45;;;1.48;;
44722;SDS011;30451;48.638;10.624;2022-11-25T05:08:17;2.20;;;1.30;;
44722;SDS011;30451;48.638;10.624;2022-11-25T05:10:42;1.67;;;1.20;;
44722;SDS011;30451;48.638;10.624;2022-11-25T05:13:08;2.28;;;1.45;;
44722;SDS011;30451;48.638;10.624;2022-11-25T05:15:33;1.90;;;1.20;;
44722;SDS011;30451;48.638;10.624;2022-11-25T05:17:59;2.17;;;1.50;;
44722;SDS011;30451;48.638;10.624;2022-11-25T05:20:25;2.05;;;1.33;;
44722;SDS011;30451;48.638;10.624;2022-11-25T05:22:50;2.15;;;1.40;;
44722;SDS011;30451;48.638;10.624;2022-11-25T05:25:16;2.20;;;1.40;;
44722;SDS011;30451;48.638;10.624;2022-11-25T05:27:41;2.10;;;1.40;;
44722;SDS011;30451;48.638;10.624;2022-11-25T05:30:07;3.42;;;1.30;;
44722;SDS011;30451;48.638;10.624;2022-11-25T05:32:33;2.28;;;1.55;;
44722;SDS011;30451;48.638;10.624;2022-11-25T05:34:59;2.20;;;1.40;;
44722;SDS011;30451;48.638;10.624;2022-11-25T05:37:24;2.75;;;1.48;;
44722;SDS011;30451;48.638;10.624;2022-11-25T05:39:50;2.13;;;1.40;;
44722;SDS011;30451;48.638;10.624;2022-11-25T05:42:16;2.10;;;1.48;;
44722;SDS011;30451;48.638;10.624;2022-11-25T05:44:41;2.05;;;1.20;;
44722;SDS011;30451;48.638;10.624;2022-11-25T05:47:07;2.13;;;1.30;;
44722;SDS011;30451;48.638;10.624;2022-11-25T05:49:33;1.90;;;1.30;;
44722;SDS011;30451;48.638;10.624;2022-11-25T05:51:58;2.00;;;1.52;;
44722;SDS011;30451;48.638;10.624;2022-11-25T05:54:25;2.00;;;1.30;;
44722;SDS011;30451;48.638;10.624;2022-11-25T05:56:50;1.83;;;1.33;;
44722;SDS011;30451;48.638;10.624;2022-11-25T05:59:16;2.95;;;1.33;;
44722;SDS011;30451;48.638;10.624;2022-11-25T06:01:42;3.50;;;1.52;;
44722;SDS011;30451;48.638;10.624;2022-11-25T06:04:08;1.98;;;1.40;;
44722;SDS011;30451;48.638;10.624;2022-11-25T06:06:34;2.05;;;1.27;;
44722;SDS011;30451;48.638;10.624;2022-11-25T06:09:00;1.58;;;1.20;;
44722;SDS011;30451;48.638;10.624;2022-11-25T06:11:25;2.60;;;1.30;;
44722;SDS011;30451;48.638;10.624;2022-11-25T06:13:51;2.00;;;1.40;;
44722;SDS011;30451;48.638;10.624;2022-11-25T06:16:20;2.58;;;1.30;;
44722;SDS011;30451;48.638;10.624;2022-11-25T06:18:47;3.25;;;1.50;;
44722;SDS011;30451;48.638;10.624;2022-11-25T06:21:13;2.40;;;1.58;;
44722;SDS011;30451;48.638;10.624;2022-11-25T06:23:39;2.13;;;1.30;;
44722;SDS011;30451;48.638;10.624;2022-11-25T06:26:15;1.98;;;1.30;;
44722;SDS011;30451;48.638;10.624;2022-11-25T06:28:43;3.10;;;1.70;;
44722;SDS011;30451;48.638;10.624;2022-11-25T06:31:10;2.65;;;1.70;;
44722;SDS011;30451;48.638;10.624;2022-11-25T06:33:41;2.35;;;1.33;;
44722;SDS011;30451;48.638;10.624;2022-11-25T06:36:10;2.28;;;1.35;;
44722;SDS011;30451;48.638;10.624;2022-11-25T06:38:51;2.05;;;1.40;;
44722;SDS011;30451;48.638;10.624;2022-11-25T06:41:18;4.35;;;1.63;;
44722;SDS011;30451;48.638;10.624;2022-11-25T06:43:44;2.53;;;1.60;;
44722;SDS011;30451;48.638;10.624;2022-11-25T06:46:10;2.10;;;1.27;;
44722;SDS011;30451;48.638;10.624;2022-11-25T06:48:40;2.92;;;1.73;;
44722;SDS011;30451;48.638;10.624;2022-11-25T06:51:08;2.08;;;1.30;;
44722;SDS011;30451;48.638;10.624;2022-11-25T06:53:35;3.03;;;1.33;;
44722;SDS011;30451;48.638;10.624;2022-11-25T06:58:37;1.95;;;1.30;;
44722;SDS011;30451;48.638;10.624;2022-11-25T07:01:23;2.65;;;1.30;;
44722;SDS011;30451;48.638;10.624;2022-11-25T07:03:52;3.28;;;1.40;;
44722;SDS011;30451;48.638;10.624;2022-11-25T07:06:19;1.88;;;1.42;;
44722;SDS011;30451;48.638;10.624;2022-11-25T07:08:45;2.08;;;1.38;;
44722;SDS011;30451;48.638;10.624;2022-11-25T07:11:13;2.00;;;1.40;;
44722;SDS011;30451;48.638;10.624;2022-11-25T07:13:42;2.55;;;1.45;;
44722;SDS011;30451;48.638;10.624;2022-11-25T07:16:09;2.50;;;1.67;;
44722;SDS011;30451;48.638;10.624;2022-11-25T07:18:36;3.42;;;1.50;;
44722;SDS011;30451;48.638;10.624;2022-11-25T07:21:07;1.73;;;1.38;;
44722;SDS011;30451;48.638;10.624;2022-11-25T07:23:34;1.60;;;1.20;;
44722;SDS011;30451;48.638;10.624;2022-11-25T07:26:04;2.83;;;1.50;;
44722;SDS011;30451;48.638;10.624;2022-11-25T07:28:30;3.00;;;1.48;;
44722;SDS011;30451;48.638;10.624;2022-11-25T07:31:02;2.67;;;1.40;;
44722;SDS011;30451;48.638;10.624;2022-11-25T07:33:29;2.72;;;1.65;;
44722;SDS011;30451;48.638;10.624;2022-11-25T07:35:54;2.15;;;1.40;;
44722;SDS011;30451;48.638;10.624;2022-11-25T07:38:20;2.40;;;1.20;;
44722;SDS011;30451;48.638;10.624;2022-11-25T07:40:46;2.00;;;1.38;;
44722;SDS011;30451;48.638;10.624;2022-11-25T07:43:14;3.30;;;1.48;;
44722;SDS011;30451;48.638;10.624;2022-11-25T07:45:39;2.58;;;1.52;;
44722;SDS011;30451;48.638;10.624;2022-11-25T07:48:05;2.60;;;1.40;;
44722;SDS011;30451;48.638;10.624;2022-11-25T07:50:31;2.63;;;1.52;;
44722;SDS011;30451;48.638;10.624;2022-11-25T07:52:56;1.95;;;1.35;;
44722;SDS011;30451;48.638;10.624;2022-11-25T07:55:22;2.22;;;1.30;;
44722;SDS011;30451;48.638;10.624;2022-11-25T07:57:48;2.70;;;1.50;;
44722;SDS011;30451;48.638;10.624;2022-11-25T08:00:13;4.05;;;1.40;;
44722;SDS011;30451;48.638;10.624;2022-11-25T08:02:40;2.35;;;1.45;;
44722;SDS011;30451;48.638;10.624;2022-11-25T08:05:05;3.05;;;1.20;;
44722;SDS011;30451;48.638;10.624;2022-11-25T08:07:31;1.80;;;1.20;;
44722;SDS011;30451;48.638;10.624;2022-11-25T08:09:57;1.92;;;1.10;;
44722;SDS011;30451;48.638;10.624;2022-11-25T08:12:22;1.88;;;1.20;;
44722;SDS011;30451;48.638;10.624;2022-11-25T08:14:48;1.70;;;1.15;;
44722;SDS011;30451;48.638;10.624;2022-11-25T08:17:14;1.70;;;1.10;;
44722;SDS011;30451;48.638;10.624;2022-11-25T08:19:39;1.55;;;1.13;;
44722;SDS011;30451;48.638;10.624;2022-11-25T08:22:05;1.73;;;1.08;;
44722;SDS011;30451;48.638;10.624;2022-11-25T08:24:30;1.83;;;1.30;;
44722;SDS011;30451;48.638;10.624;2022-11-25T08:26:56;1.77;;;1.17;;
44722;SDS011;30451;48.638;10.624;2022-11-25T08:29:25;2.47;;;1.10;;
44722;SDS011;30451;48.638;10.624;2022-11-25T08:31:50;3.10;;;1.20;;
44722;SDS011;30451;48.638;10.624;2022-11-25T08:34:20;1.95;;;1.10;;
44722;SDS011;30451;48.638;10.624;2022-11-25T08:36:48;2.17;;;1.13;;
44722;SDS011;30451;48.638;10.624;2022-11-25T08:39:14;1.63;;;0.93;;
44722;SDS011;30451;48.638;10.624;2022-11-25T08:41:40;2.03;;;1.20;;
44722;SDS011;30451;48.638;10.624;2022-11-25T08:44:06;2.03;;;1.10;;
44722;SDS011;30451;48.638;10.624;2022-11-25T08:46:34;1.90;;;1.20;;
44722;SDS011;30451;48.638;10.624;2022-11-25T08:49:02;2.20;;;1.20;;
44722;SDS011;30451;48.638;10.624;2022-11-25T08:51:29;1.92;;;1.10;;
44722;SDS011;30451;48.638;10.624;2022-11-25T08:53:56;1.30;;;1.00;;
44722;SDS011;30451;48.638;10.624;2022-11-25T08:56:23;1.65;;;1.10;;
44722;SDS011;30451;48.638;10.624;2022-11-25T08:58:49;1.55;;;1.20;;
44722;SDS011;30451;48.638;10.624;2022-11-25T09:01:16;1.42;;;1.00;;
44722;SDS011;30451;48.638;10.624;2022-11-25T09:03:43;2.13;;;1.35;;
44722;SDS011;30451;48.638;10.624;2022-11-25T09:06:11;1.85;;;1.17;;
44722;SDS011;30451;48.638;10.624;2022-11-25T09:08:38;2.03;;;1.30;;
44722;SDS011;30451;48.638;10.624;2022-11-25T09:11:05;1.83;;;1.17;;
44722;SDS011;30451;48.638;10.624;2022-11-25T09:13:32;2.00;;;1.13;;
44722;SDS011;30451;48.638;10.624;2022-11-25T09:15:58;1.70;;;1.20;;
44722;SDS011;30451;48.638;10.624;2022-11-25T09:18:25;1.27;;;1.00;;
44722;SDS011;30451;48.638;10.624;2022-11-25T09:20:53;2.22;;;1.20;;
44722;SDS011;30451;48.638;10.624;2022-11-25T09:23:20;4.65;;;1.20;;
44722;SDS011;30451;48.638;10.624;2022-11-25T09:25:53;1.88;;;1.20;;
44722;SDS011;30451;48.638;10.624;2022-11-25T09:28:21;1.98;;;1.00;;
44722;SDS011;30451;48.638;10.624;2022-11-25T09:30:47;1.70;;;1.05;;
44722;SDS011;30451;48.638;10.624;2022-11-25T09:33:13;3.03;;;1.20;;
44722;SDS011;30451;48.638;10.624;2022-11-25T09:35:39;3.45;;;1.20;;
44722;SDS011;30451;48.638;10.624;2022-11-25T09:38:05;1.70;;;1.13;;
44722;SDS011;30451;48.638;10.624;2022-11-25T09:40:50;3.33;;;1.08;;
44722;SDS011;30451;48.638;10.624;2022-11-25T09:43:35;2.55;;;1.20;;
44722;SDS011;30451;48.638;10.624;2022-11-25T09:46:49;2.25;;;1.10;;
44722;SDS011;30451;48.638;10.624;2022-11-25T09:49:36;2.15;;;1.00;;
44722;SDS011;30451;48.638;10.624;2022-11-25T09:55:15;2.20;;;1.05;;
44722;SDS011;30451;48.638;10.624;2022-11-25T10:00:24;1.20;;;0.98;;
44722;SDS011;30451;48.638;10.624;2022-11-25T10:03:04;2.10;;;1.20;;
44722;SDS011;30451;48.638;10.624;2022-11-25T10:05:42;1.40;;;1.00;;
44722;SDS011;30451;48.638;10.624;2022-11-25T10:08:14;2.75;;;1.10;;
44722;SDS011;30451;48.638;10.624;2022-11-25T10:10:45;2.00;;;1.10;;
44722;SDS011;30451;48.638;10.624;2022-11-25T10:13:47;1.80;;;1.20;;
44722;SDS011;30451;48.638;10.624;2022-11-25T10:16:26;1.73;;;1.10;;
44722;SDS011;30451;48.638;10.624;2022-11-25T10:21:49;3.17;;;1.48;;
44722;SDS011;30451;48.638;10.624;2022-11-25T10:24:15;2.15;;;1.35;;
44722;SDS011;30451;48.638;10.624;2022-11-25T10:26:43;1.98;;;1.20;;
44722;SDS011;30451;48.638;10.624;2022-11-25T10:31:37;1.75;;;1.10;;
44722;SDS011;30451;48.638;10.624;2022-11-25T10:34:22;2.03;;;1.20;;
44722;SDS011;30451;48.638;10.624;2022-11-25T10:37:25;1.92;;;1.10;;
44722;SDS011;30451;48.638;10.624;2022-11-25T10:39:57;1.80;;;1.20;;
44722;SDS011;30451;48.638;10.624;2022-11-25T10:42:24;2.20;;;1.30;;
44722;SDS011;30451;48.638;10.624;2022-11-25T10:44:51;2.10;;;1.30;;
44722;SDS011;30451;48.638;10.624;2022-11-25T10:50:16;1.98;;;1.20;;
44722;SDS011;30451;48.638;10.624;2022-11-25T10:52:54;1.80;;;1.17;;
44722;SDS011;30451;48.638;10.624;2022-11-25T10:55:25;1.80;;;1.20;;
44722;SDS011;30451;48.638;10.624;2022-11-25T10:57:52;3.90;;;1.35;;
44722;SDS011;30451;48.638;10.624;2022-11-25T11:00:29;2.63;;;1.33;;
44722;SDS011;30451;48.638;10.624;2022-11-25T11:02:59;2.22;;;1.20;;
44722;SDS011;30451;48.638;10.624;2022-11-25T11:05:46;3.40;;;1.30;;
44722;SDS011;30451;48.638;10.624;2022-11-25T11:08:20;1.90;;;1.35;;
44722;SDS011;30451;48.638;10.624;2022-11-25T11:13:58;2.10;;;1.30;;
44722;SDS011;30451;48.638;10.624;2022-11-25T11:16:39;2.42;;;1.40;;
44722;SDS011;30451;48.638;10.624;2022-11-25T11:19:13;4.57;;;1.55;;
44722;SDS011;30451;48.638;10.624;2022-11-25T11:21:52;2.13;;;1.23;;
44722;SDS011;30451;48.638;10.624;2022-11-25T11:24:31;2.97;;;1.40;;
44722;SDS011;30451;48.638;10.624;2022-11-25T11:27:05;2.33;;;1.20;;
44722;SDS011;30451;48.638;10.624;2022-11-25T11:32:06;1.92;;;1.30;;
44722;SDS011;30451;48.638;10.624;2022-11-25T11:48:26;2.13;;;1.35;;
44722;SDS011;30451;48.638;10.624;2022-11-25T11:50:59;2.15;;;1.27;;
44722;SDS011;30451;48.638;10.624;2022-11-25T11:56:14;1.80;;;1.20;;
44722;SDS011;30451;48.638;10.624;2022-11-25T12:01:45;2.45;;;1.60;;
44722;SDS011;30451;48.638;10.624;2022-11-25T12:06:57;1.83;;;1.00;;
44722;SDS011;30451;48.638;10.624;2022-11-25T12:09:31;1.90;;;1.20;;
44722;SDS011;30451;48.638;10.624;2022-11-25T12:12:02;1.63;;;1.20;;
44722;SDS011;30451;48.638;10.624;2022-11-25T12:15:16;2.83;;;1.40;;
44722;SDS011;30451;48.638;10.624;2022-11-25T12:17:35;2.00;;;1.20;;
44722;SDS011;30451;48.638;10.624;2022-11-25T12:20:15;3.00;;;1.70;;
44722;SDS011;30451;48.638;10.624;2022-11-25T12:26:16;1.90;;;1.13;;
44722;SDS011;30451;48.638;10.624;2022-11-25T12:28:59;2.22;;;1.25;;
44722;SDS011;30451;48.638;10.624;2022-11-25T12:31:38;2.28;;;1.25;;
44722;SDS011;30451;48.638;10.624;2022-11-25T12:34:10;2.28;;;1.30;;
44722;SDS011;30451;48.638;10.624;2022-11-25T12:36:45;2.10;;;1.33;;
44722;SDS011;30451;48.638;10.624;2022-11-25T12:39:29;2.55;;;1.30;;
44722;SDS011;30451;48.638;10.624;2022-11-25T12:42:10;2.53;;;1.50;;
44722;SDS011;30451;48.638;10.624;2022-11-25T12:44:58;2.65;;;1.40;;
44722;SDS011;30451;48.638;10.624;2022-11-25T12:47:31;3.17;;;1.10;;
44722;SDS011;30451;48.638;10.624;2022-11-25T12:49:57;2.97;;;1.17;;
44722;SDS011;30451;48.638;10.624;2022-11-25T12:55:14;2.30;;;1.30;;
44722;SDS011;30451;48.638;10.624;2022-11-25T13:14:27;2.63;;;1.50;;
44722;SDS011;30451;48.638;10.624;2022-11-25T13:17:22;3.00;;;1.40;;
44722;SDS011;30451;48.638;10.624;2022-11-25T13:19:48;3.38;;;1.40;;
44722;SDS011;30451;48.638;10.624;2022-11-25T13:24:47;2.78;;;1.45;;
44722;SDS011;30451;48.638;10.624;2022-11-25T13:27:33;2.88;;;1.60;;
44722;SDS011;30451;48.638;10.624;2022-11-25T13:38:10;2.08;;;1.30;;
44722;SDS011;30451;48.638;10.624;2022-11-25T13:41:00;3.15;;;1.65;;
44722;SDS011;30451;48.638;10.624;2022-11-25T13:43:28;3.58;;;1.60;;
44722;SDS011;30451;48.638;10.624;2022-11-25T13:45:54;2.90;;;1.50;;
44722;SDS011;30451;48.638;10.624;2022-11-25T13:48:38;3.90;;;1.85;;
44722;SDS011;30451;48.638;10.624;2022-11-25T13:53:56;4.07;;;1.65;;
44722;SDS011;30451;48.638;10.624;2022-11-25T14:01:35;3.47;;;1.70;;
44722;SDS011;30451;48.638;10.624;2022-11-25T14:04:06;2.90;;;1.40;;
44722;SDS011;30451;48.638;10.624;2022-11-25T14:10:02;4.70;;;2.17;;
44722;SDS011;30451;48.638;10.624;2022-11-25T14:26:08;4.15;;;1.85;;
44722;SDS011;30451;48.638;10.624;2022-11-25T14:28:41;2.83;;;1.60;;
44722;SDS011;30451;48.638;10.624;2022-11-25T14:31:15;5.28;;;1.90;;
44722;SDS011;30451;48.638;10.624;2022-11-25T14:33:56;3.10;;;1.65;;
44722;SDS011;30451;48.638;10.624;2022-11-25T14:36:25;3.13;;;1.67;;
44722;SDS011;30451;48.638;10.624;2022-11-25T14:38:56;4.72;;;1.65;;
44722;SDS011;30451;48.638;10.624;2022-11-25T14:41:27;3.78;;;1.83;;
44722;SDS011;30451;48.638;10.624;2022-11-25T14:44:15;3.37;;;1.57;;
44722;SDS011;30451;48.638;10.624;2022-11-25T14:46:53;4.00;;;1.42;;
44722;SDS011;30451;48.638;10.624;2022-11-25T14:49:20;3.78;;;1.50;;
44722;SDS011;30451;48.638;10.624;2022-11-25T14:51:47;4.60;;;1.90;;
44722;SDS011;30451;48.638;10.624;2022-11-25T14:54:15;3.42;;;1.58;;
44722;SDS011;30451;48.638;10.624;2022-11-25T14:56:42;3.13;;;1.60;;
44722;SDS011;30451;48.638;10.624;2022-11-25T14:59:08;3.13;;;1.40;;
44722;SDS011;30451;48.638;10.624;2022-11-25T15:01:36;2.85;;;1.77;;
44722;SDS011;30451;48.638;10.624;2022-11-25T15:04:05;4.28;;;1.60;;
44722;SDS011;30451;48.638;10.624;2022-11-25T15:06:56;5.03;;;1.65;;
44722;SDS011;30451;48.638;10.624;2022-11-25T15:09:40;3.80;;;1.70;;
44722;SDS011;30451;48.638;10.624;2022-11-25T15:12:14;3.92;;;1.50;;
44722;SDS011;30451;48.638;10.624;2022-11-25T15:14:46;3.08;;;1.60;;
44722;SDS011;30451;48.638;10.624;2022-11-25T15:17:21;4.25;;;1.55;;
44722;SDS011;30451;48.638;10.624;2022-11-25T15:20:02;3.13;;;1.60;;
44722;SDS011;30451;48.638;10.624;2022-11-25T15:22:36;3.33;;;1.45;;
44722;SDS011;30451;48.638;10.624;2022-11-25T15:25:06;2.58;;;1.50;;
44722;SDS011;30451;48.638;10.624;2022-11-25T15:27:34;3.35;;;1.50;;
44722;SDS011;30451;48.638;10.624;2022-11-25T15:30:19;3.03;;;1.83;;
44722;SDS011;30451;48.638;10.624;2022-11-25T15:32:49;3.00;;;1.40;;
44722;SDS011;30451;48.638;10.624;2022-11-25T15:35:17;2.38;;;1.40;;
44722;SDS011;30451;48.638;10.624;2022-11-25T15:37:45;2.85;;;1.33;;
44722;SDS011;30451;48.638;10.624;2022-11-25T15:43:17;2.60;;;1.42;;
44722;SDS011;30451;48.638;10.624;2022-11-25T15:45:48;4.60;;;2.05;;
44722;SDS011;30451;48.638;10.624;2022-11-25T15:48:22;3.40;;;1.50;;
44722;SDS011;30451;48.638;10.624;2022-11-25T15:50:54;4.13;;;1.50;;
44722;SDS011;30451;48.638;10.624;2022-11-25T15:53:27;2.75;;;1.33;;
44722;SDS011;30451;48.638;10.624;2022-11-25T15:55:57;4.68;;;1.83;;
44722;SDS011;30451;48.638;10.624;2022-11-25T15:58:24;3.92;;;1.50;;
44722;SDS011;30451;48.638;10.624;2022-11-25T16:01:04;5.07;;;1.80;;
44722;SDS011;30451;48.638;10.624;2022-11-25T16:03:39;3.85;;;1.60;;
44722;SDS011;30451;48.638;10.624;2022-11-25T16:06:18;3.30;;;1.52;;
44722;SDS011;30451;48.638;10.624;2022-11-25T16:08:53;4.55;;;1.65;;
44722;SDS011;30451;48.638;10.624;2022-11-25T16:11:21;3.70;;;1.55;;
44722;SDS011;30451;48.638;10.624;2022-11-25T16:13:50;2.13;;;1.30;;
44722;SDS011;30451;48.638;10.624;2022-11-25T16:21:27;2.85;;;1.40;;
44722;SDS011;30451;48.638;10.624;2022-11-25T16:32:29;3.20;;;1.55;;
44722;SDS011;30451;48.638;10.624;2022-11-25T16:34:57;4.10;;;1.52;;
44722;SDS011;30451;48.638;10.624;2022-11-25T16:37:33;4.00;;;1.70;;
44722;SDS011;30451;48.638;10.624;2022-11-25T16:39:59;4.28;;;1.80;;
44722;SDS011;30451;48.638;10.624;2022-11-25T16:42:25;4.40;;;1.98;;
44722;SDS011;30451;48.638;10.624;2022-11-25T16:44:50;4.88;;;1.95;;
44722;SDS011;30451;48.638;10.624;2022-11-25T16:47:17;4.10;;;1.70;;